Time;durP1;ratioP1;P1;durP2;ratioP2;P2;SDS_P1;SDS_P2;PMS_P1;PMS_P2;Temp;Humidity;BMP_temperature;BMP_pressure;BME280_temperature;BME280_humidity;BME280_pressure;Samples;Min_cycle;Max_cycle;Signal;HPM_P1;HPM_P2
2021/07/12 00:01:27;;;;;;;;;;;19.90;64.00;;;;;;500489;237;1018;-70
2021/07/12 00:03:28;;;;;;;;;;;19.90;64.00;;;;;;500495;237;2116;-70
2021/07/12 00:05:31;;;;;;;;;;;19.90;64.10;;;;;;500722;237;1026;-70
2021/07/12 00:07:31;;;;;;;;;;;19.90;64.10;;;;;;500336;237;1326;-71
2021/07/12 00:09:33;;;;;;;;;;;19.90;64.00;;;;;;500490;237;1101;-70
2021/07/12 00:11:34;;;;;;;;;;;19.90;64.00;;;;;;500653;237;1079;-70
2021/07/12 00:13:35;;;;;;;;;;;19.90;64.00;;;;;;500505;237;1217;-70
2021/07/12 00:15:37;;;;;;;;;;;19.90;63.90;;;;;;500476;237;1062;-70
2021/07/12 00:17:38;;;;;;;;;;;20.00;63.90;;;;;;500562;237;1110;-70
2021/07/12 00:19:39;;;;;;;;;;;20.00;63.90;;;;;;500461;237;1083;-70
2021/07/12 00:21:42;;;;;;;;;;;19.90;63.80;;;;;;500573;237;1186;-70
2021/07/12 00:23:43;;;;;;;;;;;20.00;63.80;;;;;;500512;237;2121;-71
2021/07/12 00:25:44;;;;;;;;;;;20.00;63.70;;;;;;500556;237;1077;-70
2021/07/12 00:27:46;;;;;;;;;;;20.00;63.70;;;;;;500600;237;1217;-70
2021/07/12 00:29:47;;;;;;;;;;;20.00;63.70;;;;;;500777;237;926;-70
2021/07/12 00:31:48;;;;;;;;;;;20.00;63.60;;;;;;500429;237;1189;-70
2021/07/12 00:33:49;;;;;;;;;;;20.00;63.60;;;;;;500541;237;1143;-70
2021/07/12 00:35:51;;;;;;;;;;;20.00;63.60;;;;;;500422;237;1145;-70
2021/07/12 00:37:52;;;;;;;;;;;20.00;63.60;;;;;;500473;237;1079;-70
2021/07/12 00:39:53;;;;;;;;;;;20.00;63.70;;;;;;500425;237;1075;-71
2021/07/12 00:41:55;;;;;;;;;;;20.00;63.70;;;;;;500484;237;2204;-70
2021/07/12 00:43:56;;;;;;;;;;;20.00;63.70;;;;;;500438;237;1105;-71
2021/07/12 00:45:57;;;;;;;;;;;19.90;63.70;;;;;;500423;237;1299;-70
2021/07/12 00:47:59;;;;;;;;;;;19.90;63.70;;;;;;500439;237;1118;-70
2021/07/12 00:50:00;;;;;;;;;;;19.90;63.60;;;;;;500576;237;1036;-70
2021/07/12 00:52:01;;;;;;;;;;;19.90;63.60;;;;;;500475;237;1034;-70
2021/07/12 00:54:03;;;;;;;;;;;20.00;63.60;;;;;;500523;237;1105;-70
2021/07/12 00:56:04;;;;;;;;;;;20.00;63.60;;;;;;500433;237;1115;-70
2021/07/12 00:58:05;;;;;;;;;;;20.00;63.40;;;;;;500519;233;1240;-71
2021/07/12 01:00:07;;;;;;;;;;;20.00;63.50;;;;;;500495;237;979;-70
2021/07/12 01:02:08;;;;;;;;;;;20.00;63.50;;;;;;500423;237;2136;-70
2021/07/12 01:04:09;;;;;;;;;;;20.00;63.50;;;;;;500436;237;1117;-70
2021/07/12 01:06:11;;;;;;;;;;;20.00;63.60;;;;;;500665;237;1146;-70
2021/07/12 01:08:12;;;;;;;;;;;20.00;63.60;;;;;;500409;237;1042;-70
2021/07/12 01:10:13;;;;;;;;;;;19.90;63.60;;;;;;500770;237;1063;-70
2021/07/12 01:12:15;;;;;;;;;;;19.90;63.70;;;;;;500294;237;1166;-70
2021/07/12 01:14:16;;;;;;;;;;;19.90;63.70;;;;;;500408;237;1158;-70
2021/07/12 01:16:17;;;;;;;;;;;19.90;63.70;;;;;;500370;237;1075;-70
2021/07/12 01:18:19;;;;;;;;;;;19.90;63.70;;;;;;500566;237;1043;-70
2021/07/12 01:20:23;;;;;;;;;;;19.90;63.70;;;;;;500424;237;1372;-70
2021/07/12 01:22:24;;;;;;;;;;;20.00;63.70;;;;;;500432;238;2128;-70
2021/07/12 01:24:25;;;;;;;;;;;20.00;63.70;;;;;;500443;237;1049;-71
2021/07/12 01:26:26;;;;;;;;;;;20.00;63.60;;;;;;500432;237;1029;-70
2021/07/12 01:28:28;;;;;;;;;;;20.10;63.60;;;;;;500419;237;1116;-70
2021/07/12 01:30:29;;;;;;;;;;;20.00;63.50;;;;;;500673;237;1040;-70
2021/07/12 01:32:30;;;;;;;;;;;20.00;63.50;;;;;;500640;237;1030;-70
2021/07/12 01:34:32;;;;;;;;;;;20.00;63.60;;;;;;500652;237;1013;-70
2021/07/12 01:36:33;;;;;;;;;;;20.00;63.70;;;;;;500423;237;1104;-70
2021/07/12 01:38:34;;;;;;;;;;;20.00;63.70;;;;;;500445;237;1041;-70
2021/07/12 01:40:36;;;;;;;;;;;20.00;63.70;;;;;;500420;237;1073;-70
2021/07/12 01:42:37;;;;;;;;;;;19.90;63.70;;;;;;500387;237;2195;-70
2021/07/12 01:44:38;;;;;;;;;;;19.90;63.70;;;;;;500450;237;1161;-70
2021/07/12 01:46:40;;;;;;;;;;;19.90;63.70;;;;;;500562;237;1008;-70
2021/07/12 01:48:41;;;;;;;;;;;20.00;63.80;;;;;;500478;237;1077;-70
2021/07/12 01:50:42;;;;;;;;;;;20.00;63.70;;;;;;500443;237;1055;-70
2021/07/12 01:52:43;;;;;;;;;;;20.00;63.70;;;;;;500371;237;1168;-70
2021/07/12 01:54:45;;;;;;;;;;;20.00;63.70;;;;;;500441;237;1075;-70
2021/07/12 01:56:46;;;;;;;;;;;20.00;63.60;;;;;;500426;236;1247;-70
2021/07/12 01:58:48;;;;;;;;;;;20.00;63.60;;;;;;500696;237;1140;-70
2021/07/12 02:00:49;;;;;;;;;;;20.00;63.60;;;;;;500494;237;1017;-70
2021/07/12 02:02:50;;;;;;;;;;;20.00;63.60;;;;;;500961;237;2184;-70
2021/07/12 02:04:52;;;;;;;;;;;19.90;63.60;;;;;;500417;237;1174;-70
2021/07/12 02:06:53;;;;;;;;;;;19.90;63.60;;;;;;500355;237;1149;-70
2021/07/12 02:08:54;;;;;;;;;;;19.90;63.60;;;;;;500430;237;1094;-70
2021/07/12 02:10:55;;;;;;;;;;;20.00;63.60;;;;;;500420;237;1022;-70
2021/07/12 02:12:57;;;;;;;;;;;19.90;63.50;;;;;;500377;237;1040;-70
2021/07/12 02:14:58;;;;;;;;;;;20.00;63.60;;;;;;500492;237;1160;-70
2021/07/12 02:16:59;;;;;;;;;;;20.00;63.50;;;;;;500490;237;1230;-70
2021/07/12 02:19:01;;;;;;;;;;;20.00;63.50;;;;;;500718;237;1079;-70
2021/07/12 02:21:02;;;;;;;;;;;20.00;63.50;;;;;;500394;237;1192;-70
2021/07/12 02:23:03;;;;;;;;;;;20.00;63.40;;;;;;500544;237;2132;-70
2021/07/12 02:25:05;;;;;;;;;;;20.00;63.40;;;;;;500587;237;1098;-70
2021/07/12 02:27:06;;;;;;;;;;;20.00;63.50;;;;;;500549;237;1192;-70
2021/07/12 02:29:08;;;;;;;;;;;20.00;63.50;;;;;;500544;237;1475;-70
2021/07/12 02:31:09;;;;;;;;;;;19.90;63.50;;;;;;500470;237;1305;-70
2021/07/12 02:33:10;;;;;;;;;;;19.90;63.50;;;;;;500406;237;1149;-70
2021/07/12 02:35:12;;;;;;;;;;;20.00;63.60;;;;;;500475;237;1036;-70
2021/07/12 02:37:13;;;;;;;;;;;19.90;63.50;;;;;;500475;237;1126;-70
2021/07/12 02:39:14;;;;;;;;;;;19.90;63.50;;;;;;500404;237;1117;-70
2021/07/12 02:41:15;;;;;;;;;;;19.90;63.40;;;;;;500522;237;1205;-70
2021/07/12 02:43:17;;;;;;;;;;;20.00;63.50;;;;;;500461;237;2187;-70
2021/07/12 02:45:18;;;;;;;;;;;20.00;63.40;;;;;;500419;237;1128;-70
2021/07/12 02:47:20;;;;;;;;;;;20.00;63.30;;;;;;500611;237;1214;-70
2021/07/12 02:49:21;;;;;;;;;;;20.00;63.30;;;;;;500487;237;1058;-71
2021/07/12 02:51:22;;;;;;;;;;;20.00;63.30;;;;;;500531;237;1093;-70
2021/07/12 02:53:23;;;;;;;;;;;20.00;63.20;;;;;;500593;237;1220;-70
2021/07/12 02:55:25;;;;;;;;;;;20.00;63.30;;;;;;500513;237;1100;-70
2021/07/12 02:57:27;;;;;;;;;;;20.00;63.30;;;;;;500385;237;1217;-70
2021/07/12 02:59:28;;;;;;;;;;;20.00;63.20;;;;;;500460;237;1155;-70
2021/07/12 03:01:30;;;;;;;;;;;19.90;63.20;;;;;;500372;237;1265;-70
2021/07/12 03:03:31;;;;;;;;;;;20.00;63.30;;;;;;500424;237;2135;-70
2021/07/12 03:05:32;;;;;;;;;;;20.00;63.30;;;;;;500484;237;1053;-70
2021/07/12 03:07:34;;;;;;;;;;;19.90;63.30;;;;;;500394;237;1230;-70
2021/07/12 03:09:36;;;;;;;;;;;19.90;63.30;;;;;;500418;237;1137;-70
2021/07/12 03:11:37;;;;;;;;;;;19.90;63.30;;;;;;500557;237;1519;-70
2021/07/12 03:13:38;;;;;;;;;;;19.90;63.20;;;;;;500480;237;958;-70
2021/07/12 03:15:40;;;;;;;;;;;19.90;63.10;;;;;;500467;237;1261;-70
2021/07/12 03:17:41;;;;;;;;;;;19.90;63.20;;;;;;500489;237;1128;-70
2021/07/12 03:19:43;;;;;;;;;;;19.90;63.10;;;;;;500764;237;1102;-70
2021/07/12 03:21:44;;;;;;;;;;;19.90;63.20;;;;;;500424;236;1206;-70
2021/07/12 03:23:45;;;;;;;;;;;19.90;63.20;;;;;;500537;237;2133;-70
2021/07/12 03:25:47;;;;;;;;;;;19.90;63.10;;;;;;500478;237;977;-70
2021/07/12 03:27:48;;;;;;;;;;;19.90;63.10;;;;;;500366;237;1077;-70
2021/07/12 03:29:50;;;;;;;;;;;19.90;63.00;;;;;;500665;237;1141;-70
2021/07/12 03:31:51;;;;;;;;;;;19.90;63.00;;;;;;500543;237;1225;-70
2021/07/12 03:33:52;;;;;;;;;;;19.90;63.00;;;;;;500431;237;1054;-70
2021/07/12 03:35:54;;;;;;;;;;;20.00;63.00;;;;;;500879;237;1062;-70
2021/07/12 03:37:55;;;;;;;;;;;19.90;62.90;;;;;;500423;237;1207;-70
2021/07/12 03:39:56;;;;;;;;;;;19.90;62.90;;;;;;500468;237;1023;-71
2021/07/12 03:41:59;;;;;;;;;;;19.90;62.90;;;;;;500437;237;965;-70
2021/07/12 03:44:00;;;;;;;;;;;19.90;62.90;;;;;;500438;237;2196;-70
2021/07/12 03:46:02;;;;;;;;;;;19.90;62.80;;;;;;500429;237;1180;-70
2021/07/12 03:48:03;;;;;;;;;;;19.90;62.80;;;;;;500470;237;1033;-70
2021/07/12 03:50:05;;;;;;;;;;;19.90;62.80;;;;;;500512;237;1007;-70
2021/07/12 03:52:06;;;;;;;;;;;19.90;62.80;;;;;;500519;237;1292;-71
2021/07/12 03:54:07;;;;;;;;;;;19.90;62.80;;;;;;500514;237;1076;-71
2021/07/12 03:56:08;;;;;;;;;;;19.90;62.80;;;;;;500429;237;1027;-70
2021/07/12 03:58:10;;;;;;;;;;;19.90;62.80;;;;;;500357;237;1101;-70
2021/07/12 04:00:11;;;;;;;;;;;19.90;62.70;;;;;;500553;237;1180;-71
2021/07/12 04:02:12;;;;;;;;;;;20.00;62.60;;;;;;500486;237;1198;-70
2021/07/12 04:04:14;;;;;;;;;;;19.90;62.50;;;;;;500435;237;2179;-70
2021/07/12 04:06:15;;;;;;;;;;;19.90;62.50;;;;;;500403;237;1121;-70
2021/07/12 04:08:16;;;;;;;;;;;19.90;62.50;;;;;;500396;237;1065;-70
2021/07/12 04:10:18;;;;;;;;;;;19.90;62.60;;;;;;500429;237;961;-70
2021/07/12 04:12:23;;;;;;;;;;;19.90;62.60;;;;;;500534;237;1135;-70
2021/07/12 04:14:24;;;;;;;;;;;19.80;62.60;;;;;;500469;237;1257;-70
2021/07/12 04:16:25;;;;;;;;;;;19.90;62.60;;;;;;500536;237;1159;-70
2021/07/12 04:18:27;;;;;;;;;;;19.90;62.60;;;;;;500424;237;1043;-70
2021/07/12 04:20:28;;;;;;;;;;;19.90;62.50;;;;;;500381;237;1030;-70
2021/07/12 04:22:29;;;;;;;;;;;20.00;62.50;;;;;;500211;237;1044;-70
2021/07/12 04:24:31;;;;;;;;;;;20.00;62.30;;;;;;500285;237;2148;-70
2021/07/12 04:26:32;;;;;;;;;;;20.00;62.30;;;;;;500291;237;1044;-70
2021/07/12 04:28:33;;;;;;;;;;;20.00;62.20;;;;;;500369;237;1242;-70
2021/07/12 04:30:35;;;;;;;;;;;20.00;62.20;;;;;;500302;237;1167;-70
2021/07/12 04:32:36;;;;;;;;;;;20.00;62.20;;;;;;500313;237;1100;-70
2021/07/12 04:34:38;;;;;;;;;;;20.00;62.20;;;;;;500230;237;1238;-70
2021/07/12 04:36:39;;;;;;;;;;;20.00;62.30;;;;;;500315;237;1113;-70
2021/07/12 04:38:40;;;;;;;;;;;19.90;62.30;;;;;;500319;237;1039;-70
2021/07/12 04:40:42;;;;;;;;;;;19.90;62.40;;;;;;500432;237;1047;-70
2021/07/12 04:42:43;;;;;;;;;;;19.90;62.40;;;;;;500357;237;1031;-70
2021/07/12 04:44:44;;;;;;;;;;;19.90;62.40;;;;;;500385;237;2159;-70
2021/07/12 04:46:46;;;;;;;;;;;19.90;62.40;;;;;;500307;237;1170;-70
2021/07/12 04:48:47;;;;;;;;;;;19.90;62.30;;;;;;500330;237;1147;-70
2021/07/12 04:50:48;;;;;;;;;;;19.90;62.30;;;;;;500274;237;1072;-70
2021/07/12 04:52:50;;;;;;;;;;;19.90;62.30;;;;;;500278;237;1221;-70
2021/07/12 04:54:51;;;;;;;;;;;19.90;62.20;;;;;;500337;237;1085;-70
2021/07/12 04:56:52;;;;;;;;;;;19.90;62.20;;;;;;500349;237;1015;-70
2021/07/12 04:58:55;;;;;;;;;;;19.90;62.20;;;;;;500371;237;1153;-70
2021/07/12 05:00:57;;;;;;;;;;;19.90;62.20;;;;;;500087;237;1380;-70
2021/07/12 05:02:56;;;;;;;;;;;19.90;62.20;;;;;;500129;238;1460;-70
2021/07/12 05:04:58;;;;;;;;;;;20.00;62.20;;;;;;500176;237;2180;-70
2021/07/12 05:06:59;;;;;;;;;;;20.00;62.20;;;;;;500168;237;1409;-70
2021/07/12 05:09:00;;;;;;;;;;;19.90;62.20;;;;;;500251;237;1039;-70
2021/07/12 05:11:02;;;;;;;;;;;19.90;62.30;;;;;;500131;237;1114;-70
2021/07/12 05:13:03;;;;;;;;;;;19.90;62.30;;;;;;500177;237;1099;-70
2021/07/12 05:15:04;;;;;;;;;;;19.90;62.30;;;;;;500213;237;1032;-70
2021/07/12 05:17:06;;;;;;;;;;;19.90;62.40;;;;;;500080;237;1677;-70
2021/07/12 05:19:07;;;;;;;;;;;19.90;62.40;;;;;;500238;237;1063;-70
2021/07/12 05:21:08;;;;;;;;;;;19.90;62.50;;;;;;500266;237;1237;-70
2021/07/12 05:23:10;;;;;;;;;;;20.00;62.40;;;;;;499997;237;1093;-70
2021/07/12 05:25:11;;;;;;;;;;;20.00;62.30;;;;;;500054;237;2198;-70
2021/07/12 05:27:12;;;;;;;;;;;20.00;62.30;;;;;;500201;237;1126;-70
2021/07/12 05:29:14;;;;;;;;;;;20.00;62.30;;;;;;500221;237;1045;-70
2021/07/12 05:31:15;;;;;;;;;;;20.00;62.20;;;;;;500179;237;1196;-70
2021/07/12 05:33:16;;;;;;;;;;;20.00;62.30;;;;;;500061;237;1075;-70
2021/07/12 05:35:18;;;;;;;;;;;20.00;62.30;;;;;;500090;237;1064;-70
2021/07/12 05:37:19;;;;;;;;;;;20.00;62.30;;;;;;500059;237;1085;-70
2021/07/12 05:39:20;;;;;;;;;;;20.00;62.40;;;;;;500038;237;1179;-70
2021/07/12 05:41:22;;;;;;;;;;;20.00;62.30;;;;;;500011;237;1050;-70
2021/07/12 05:43:23;;;;;;;;;;;20.00;62.30;;;;;;500013;237;1075;-70
2021/07/12 05:45:25;;;;;;;;;;;20.00;62.40;;;;;;500067;237;2212;-70
2021/07/12 05:47:26;;;;;;;;;;;20.00;62.50;;;;;;500054;237;1150;-70
2021/07/12 05:49:27;;;;;;;;;;;20.00;62.50;;;;;;500039;237;1218;-70
2021/07/12 05:51:29;;;;;;;;;;;20.10;62.40;;;;;;500029;237;1105;-70
2021/07/12 05:53:30;;;;;;;;;;;20.00;62.40;;;;;;500171;237;1030;-70
2021/07/12 05:55:31;;;;;;;;;;;20.00;62.50;;;;;;500061;237;1066;-70
2021/07/12 05:57:32;;;;;;;;;;;20.00;62.60;;;;;;499950;237;1173;-70
2021/07/12 05:59:34;;;;;;;;;;;20.10;62.40;;;;;;500021;237;1040;-70
2021/07/12 06:01:35;;;;;;;;;;;20.10;62.60;;;;;;499967;237;1188;-70
2021/07/12 06:03:36;;;;;;;;;;;20.10;62.70;;;;;;499893;237;1528;-70
2021/07/12 06:05:38;;;;;;;;;;;20.10;62.70;;;;;;499950;237;2168;-70
2021/07/12 06:07:39;;;;;;;;;;;20.10;62.60;;;;;;499953;237;1171;-70
2021/07/12 06:09:40;;;;;;;;;;;20.10;62.70;;;;;;499885;237;1417;-70
2021/07/12 06:11:42;;;;;;;;;;;20.10;62.60;;;;;;499991;237;1046;-70
2021/07/12 06:13:43;;;;;;;;;;;20.10;62.70;;;;;;500017;237;1168;-70
2021/07/12 06:15:44;;;;;;;;;;;20.10;62.90;;;;;;500062;237;1163;-70
2021/07/12 06:17:46;;;;;;;;;;;20.10;62.80;;;;;;499662;237;1237;-71
2021/07/12 06:19:47;;;;;;;;;;;20.10;62.80;;;;;;499639;237;1161;-70
2021/07/12 06:21:48;;;;;;;;;;;20.10;62.70;;;;;;499754;237;1150;-70
2021/07/12 06:23:50;;;;;;;;;;;20.20;62.70;;;;;;499755;237;1320;-70
2021/07/12 06:25:51;;;;;;;;;;;20.10;62.70;;;;;;499672;237;2184;-70
2021/07/12 06:27:53;;;;;;;;;;;20.10;62.80;;;;;;499490;237;1124;-70
2021/07/12 06:29:54;;;;;;;;;;;20.10;62.90;;;;;;499626;237;1215;-70
2021/07/12 06:31:56;;;;;;;;;;;20.10;63.00;;;;;;499678;237;1543;-70
2021/07/12 06:33:57;;;;;;;;;;;20.10;62.70;;;;;;499658;237;1077;-70
2021/07/12 06:35:58;;;;;;;;;;;20.10;62.80;;;;;;499617;237;1333;-70
2021/07/12 06:37:59;;;;;;;;;;;20.10;63.00;;;;;;499546;237;1391;-70
2021/07/12 06:40:01;;;;;;;;;;;20.10;63.00;;;;;;499389;237;1095;-70
2021/07/12 06:42:02;;;;;;;;;;;20.10;63.00;;;;;;499443;237;1519;-70
2021/07/12 06:44:03;;;;;;;;;;;20.10;62.90;;;;;;499589;237;2231;-70
2021/07/12 06:46:04;;;;;;;;;;;20.20;62.90;;;;;;499499;237;1610;-70
2021/07/12 06:48:06;;;;;;;;;;;20.10;62.90;;;;;;499680;237;1144;-70
2021/07/12 06:50:07;;;;;;;;;;;20.10;63.10;;;;;;499419;237;1382;-70
2021/07/12 06:52:09;;;;;;;;;;;20.10;63.20;;;;;;499463;236;1427;-70
2021/07/12 06:54:10;;;;;;;;;;;20.10;63.10;;;;;;499367;237;1124;-70
2021/07/12 06:56:11;;;;;;;;;;;20.10;63.10;;;;;;499512;237;1207;-70
2021/07/12 06:58:13;;;;;;;;;;;20.10;63.00;;;;;;499625;237;1093;-70
2021/07/12 07:00:14;;;;;;;;;;;20.10;63.20;;;;;;499462;237;1096;-70
2021/07/12 07:02:15;;;;;;;;;;;20.10;63.20;;;;;;499330;237;1281;-70
2021/07/12 07:04:17;;;;;;;;;;;20.10;63.20;;;;;;499314;237;2128;-71
2021/07/12 07:06:18;;;;;;;;;;;20.10;63.10;;;;;;499271;237;1271;-70
2021/07/12 07:08:19;;;;;;;;;;;20.10;63.10;;;;;;499282;237;1278;-70
2021/07/12 07:10:21;;;;;;;;;;;20.10;63.20;;;;;;499431;237;1097;-70
2021/07/12 07:12:22;;;;;;;;;;;20.10;63.20;;;;;;499496;237;1283;-70
2021/07/12 07:14:23;;;;;;;;;;;20.10;63.20;;;;;;499445;237;1114;-70
2021/07/12 07:16:25;;;;;;;;;;;20.20;63.20;;;;;;499457;237;1234;-70
2021/07/12 07:18:26;;;;;;;;;;;20.10;63.40;;;;;;499455;237;1081;-70
2021/07/12 07:20:27;;;;;;;;;;;20.20;63.40;;;;;;499433;237;1133;-70
2021/07/12 07:22:29;;;;;;;;;;;20.10;63.40;;;;;;499258;237;1089;-70
2021/07/12 07:24:30;;;;;;;;;;;20.10;63.60;;;;;;499340;237;2182;-70
2021/07/12 07:26:31;;;;;;;;;;;20.10;63.50;;;;;;499290;237;1100;-70
2021/07/12 07:28:33;;;;;;;;;;;20.10;63.60;;;;;;499390;237;1056;-70
2021/07/12 07:30:35;;;;;;;;;;;20.10;63.40;;;;;;499228;237;1089;-70
2021/07/12 07:32:36;;;;;;;;;;;20.10;63.60;;;;;;499412;237;1143;-70
2021/07/12 07:34:37;;;;;;;;;;;20.10;63.50;;;;;;499442;237;1074;-70
2021/07/12 07:36:39;;;;;;;;;;;20.10;63.60;;;;;;499346;237;1349;-70
2021/07/12 07:38:41;;;;;;;;;;;20.20;63.50;;;;;;499419;237;1146;-70
2021/07/12 07:40:42;;;;;;;;;;;20.20;63.60;;;;;;499531;237;1312;-70
2021/07/12 07:42:43;;;;;;;;;;;20.10;63.60;;;;;;499374;237;1215;-70
2021/07/12 07:44:44;;;;;;;;;;;20.20;63.60;;;;;;499384;237;2180;-70
2021/07/12 07:46:46;;;;;;;;;;;20.20;63.50;;;;;;499349;237;1050;-70
2021/07/12 07:48:47;;;;;;;;;;;20.20;63.50;;;;;;499192;237;1147;-70
2021/07/12 07:50:48;;;;;;;;;;;20.20;63.70;;;;;;499605;237;1125;-70
2021/07/12 07:52:50;;;;;;;;;;;20.30;63.70;;;;;;499276;237;1130;-70
2021/07/12 07:54:51;;;;;;;;;;;20.20;63.80;;;;;;499400;237;1060;-70
2021/07/12 07:56:52;;;;;;;;;;;20.20;63.80;;;;;;499553;237;1113;-70
2021/07/12 07:58:54;;;;;;;;;;;20.20;64.00;;;;;;499413;237;1184;-70
2021/07/12 08:00:55;;;;;;;;;;;20.20;63.90;;;;;;499593;237;1111;-70
2021/07/12 08:02:56;;;;;;;;;;;20.20;64.10;;;;;;499603;237;1270;-70
2021/07/12 08:04:58;;;;;;;;;;;20.20;64.20;;;;;;499610;237;2145;-70
2021/07/12 08:06:59;;;;;;;;;;;20.20;64.30;;;;;;499314;237;1102;-70
2021/07/12 08:09:00;;;;;;;;;;;20.20;64.30;;;;;;499374;237;1224;-70
2021/07/12 08:11:02;;;;;;;;;;;20.10;64.30;;;;;;499418;237;1100;-71
2021/07/12 08:13:03;;;;;;;;;;;20.20;64.50;;;;;;499413;237;1129;-70
2021/07/12 08:15:04;;;;;;;;;;;20.20;64.40;;;;;;499501;237;1010;-70
2021/07/12 08:17:06;;;;;;;;;;;20.20;64.40;;;;;;499461;237;1133;-70
2021/07/12 08:19:07;;;;;;;;;;;20.20;64.60;;;;;;499454;237;1221;-70
2021/07/12 08:21:11;;;;;;;;;;;20.20;64.70;;;;;;499449;237;1282;-70
2021/07/12 08:23:10;;;;;;;;;;;20.20;64.70;;;;;;499288;238;1332;-71
2021/07/12 08:25:11;;;;;;;;;;;20.20;64.70;;;;;;499529;237;2184;-70
2021/07/12 08:27:12;;;;;;;;;;;20.20;64.50;;;;;;499473;237;1214;-70
2021/07/12 08:29:13;;;;;;;;;;;20.20;64.80;;;;;;499258;237;1051;-70
2021/07/12 08:31:16;;;;;;;;;;;20.20;64.80;;;;;;499349;237;1111;-70
2021/07/12 08:33:16;;;;;;;;;;;20.20;64.80;;;;;;499258;238;1316;-70
2021/07/12 08:35:17;;;;;;;;;;;20.20;64.80;;;;;;499368;237;1068;-71
2021/07/12 08:37:19;;;;;;;;;;;20.20;64.70;;;;;;499435;237;1153;-70
2021/07/12 08:39:20;;;;;;;;;;;20.30;64.80;;;;;;499432;237;1211;-71
2021/07/12 08:41:22;;;;;;;;;;;20.30;64.70;;;;;;499559;237;1108;-70
2021/07/12 08:43:23;;;;;;;;;;;20.30;64.80;;;;;;499598;237;1045;-71
2021/07/12 08:45:24;;;;;;;;;;;20.20;64.70;;;;;;499605;237;2191;-70
2021/07/12 08:47:25;;;;;;;;;;;20.20;64.90;;;;;;499419;237;1098;-70
2021/07/12 08:49:27;;;;;;;;;;;20.20;64.90;;;;;;499387;237;1188;-70
2021/07/12 08:51:28;;;;;;;;;;;20.30;64.90;;;;;;499406;237;1210;-70
2021/07/12 08:53:29;;;;;;;;;;;20.30;64.80;;;;;;499352;237;1103;-70
2021/07/12 08:55:31;;;;;;;;;;;20.30;64.80;;;;;;499452;237;1030;-70
2021/07/12 08:57:32;;;;;;;;;;;20.30;65.00;;;;;;499420;237;1297;-70
2021/07/12 08:59:35;;;;;;;;;;;20.20;65.00;;;;;;499443;237;1139;-70
2021/07/12 09:01:35;;;;;;;;;;;20.30;64.90;;;;;;499236;238;1427;-71
2021/07/12 09:03:36;;;;;;;;;;;20.20;64.90;;;;;;499287;237;1137;-70
2021/07/12 09:05:37;;;;;;;;;;;20.30;64.90;;;;;;499356;237;2175;-70
2021/07/12 09:07:39;;;;;;;;;;;20.30;65.00;;;;;;499138;237;1270;-71
2021/07/12 09:09:40;;;;;;;;;;;20.30;65.10;;;;;;499199;237;1154;-71
2021/07/12 09:11:43;;;;;;;;;;;20.30;65.00;;;;;;499300;237;1183;-71
2021/07/12 09:13:43;;;;;;;;;;;20.30;65.00;;;;;;499339;238;1301;-71
2021/07/12 09:15:45;;;;;;;;;;;20.30;64.90;;;;;;499492;237;1432;-71
2021/07/12 09:17:46;;;;;;;;;;;20.30;64.90;;;;;;499265;237;1168;-71
2021/07/12 09:19:47;;;;;;;;;;;20.30;64.90;;;;;;499358;237;1189;-71
2021/07/12 09:21:49;;;;;;;;;;;20.30;64.80;;;;;;499305;237;1130;-70
2021/07/12 09:23:50;;;;;;;;;;;20.30;64.90;;;;;;499400;237;1080;-70
2021/07/12 09:25:51;;;;;;;;;;;20.30;65.00;;;;;;499398;237;2133;-70
2021/07/12 09:27:53;;;;;;;;;;;20.30;65.10;;;;;;499215;237;1145;-70
2021/07/12 09:29:54;;;;;;;;;;;20.30;64.90;;;;;;499197;237;1079;-70
2021/07/12 09:31:55;;;;;;;;;;;20.40;64.90;;;;;;499451;237;1397;-70
2021/07/12 09:33:57;;;;;;;;;;;20.30;64.80;;;;;;499771;237;1044;-70
2021/07/12 09:35:58;;;;;;;;;;;20.30;65.10;;;;;;499676;237;1170;-70
2021/07/12 09:37:59;;;;;;;;;;;20.30;65.20;;;;;;499318;237;1457;-70
2021/07/12 09:40:01;;;;;;;;;;;20.30;65.30;;;;;;499490;237;1078;-70
2021/07/12 09:42:02;;;;;;;;;;;20.30;65.30;;;;;;499234;237;1184;-70
2021/07/12 09:44:03;;;;;;;;;;;20.30;65.40;;;;;;499397;237;1076;-70
2021/07/12 09:46:04;;;;;;;;;;;20.30;65.20;;;;;;499287;237;2200;-70
2021/07/12 09:48:06;;;;;;;;;;;20.40;65.20;;;;;;499401;237;1058;-70
2021/07/12 09:50:09;;;;;;;;;;;20.40;65.00;;;;;;499428;237;1189;-70
2021/07/12 09:52:09;;;;;;;;;;;20.40;65.20;;;;;;499282;237;1991;-71
2021/07/12 09:54:11;;;;;;;;;;;20.30;65.10;;;;;;499290;237;1173;-70
2021/07/12 09:56:17;;;;;;;;;;;20.40;65.20;;;;;;499333;237;1087;-71
2021/07/12 09:58:13;;;;;;;;;;;20.40;65.00;;;;;;498969;238;1412;-70
2021/07/12 10:00:17;;;;;;;;;;;20.50;64.70;;;;;;499467;237;1090;-70
2021/07/12 10:02:16;;;;;;;;;;;20.50;64.60;;;;;;499435;238;1389;-70
2021/07/12 10:04:17;;;;;;;;;;;20.50;64.70;;;;;;499565;237;1238;-70
2021/07/12 10:06:19;;;;;;;;;;;20.50;64.80;;;;;;499478;237;2167;-70
2021/07/12 10:08:20;;;;;;;;;;;20.50;64.70;;;;;;499257;237;1173;-70
2021/07/12 10:10:21;;;;;;;;;;;20.50;64.80;;;;;;499371;237;1033;-70
2021/07/12 10:12:23;;;;;;;;;;;20.50;64.80;;;;;;499390;237;1160;-70
2021/07/12 10:14:24;;;;;;;;;;;20.50;64.80;;;;;;499484;237;1139;-70
2021/07/12 10:16:25;;;;;;;;;;;20.50;64.60;;;;;;499343;237;1427;-70
2021/07/12 10:18:27;;;;;;;;;;;20.60;64.60;;;;;;499534;237;1138;-70
2021/07/12 10:20:28;;;;;;;;;;;20.50;64.60;;;;;;499415;237;1344;-70
2021/07/12 10:22:29;;;;;;;;;;;20.60;64.60;;;;;;499382;237;1094;-70
2021/07/12 10:24:31;;;;;;;;;;;20.50;64.60;;;;;;499354;237;1083;-70
2021/07/12 10:26:32;;;;;;;;;;;20.50;64.70;;;;;;499390;237;2184;-70
2021/07/12 10:28:33;;;;;;;;;;;20.50;64.70;;;;;;499250;237;1078;-70
2021/07/12 10:30:34;;;;;;;;;;;20.50;64.90;;;;;;499383;237;1056;-70
2021/07/12 10:32:36;;;;;;;;;;;20.50;64.90;;;;;;499305;237;1068;-70
2021/07/12 10:34:37;;;;;;;;;;;20.40;64.90;;;;;;499314;237;1180;-69
2021/07/12 10:36:38;;;;;;;;;;;20.50;65.00;;;;;;499228;237;1416;-70
2021/07/12 10:38:40;;;;;;;;;;;20.50;65.00;;;;;;499342;237;1065;-70
2021/07/12 10:40:41;;;;;;;;;;;20.50;64.90;;;;;;499316;237;1065;-70
2021/07/12 10:42:42;;;;;;;;;;;20.50;64.80;;;;;;499333;237;1512;-70
2021/07/12 10:44:44;;;;;;;;;;;20.50;64.70;;;;;;499263;237;1156;-70
2021/07/12 10:46:46;;;;;;;;;;;20.50;64.70;;;;;;499348;237;2120;-70
2021/07/12 10:48:46;;;;;;;;;;;20.50;64.80;;;;;;499521;238;1310;-70
2021/07/12 10:50:48;;;;;;;;;;;20.60;64.60;;;;;;499303;237;1105;-70
2021/07/12 10:52:50;;;;;;;;;;;20.50;64.60;;;;;;499360;237;1124;-70
2021/07/12 10:54:50;;;;;;;;;;;20.60;64.60;;;;;;499225;238;1301;-70
2021/07/12 10:56:54;;;;;;;;;;;20.60;64.70;;;;;;499327;237;1407;-70
2021/07/12 10:58:54;;;;;;;;;;;20.60;64.40;;;;;;499416;237;1415;-70
2021/07/12 11:00:56;;;;;;;;;;;20.60;64.60;;;;;;499298;237;1551;-70
2021/07/12 11:02:57;;;;;;;;;;;20.60;64.60;;;;;;499229;237;1127;-70
2021/07/12 11:04:58;;;;;;;;;;;20.60;64.80;;;;;;499097;237;1146;-70
2021/07/12 11:07:00;;;;;;;;;;;20.60;64.60;;;;;;499218;237;2133;-70
2021/07/12 11:09:01;;;;;;;;;;;20.70;64.50;;;;;;499394;237;1108;-70
2021/07/12 11:11:02;;;;;;;;;;;20.60;64.40;;;;;;499389;237;1583;-70
2021/07/12 11:13:04;;;;;;;;;;;20.60;64.60;;;;;;499496;237;1196;-70
2021/07/12 11:15:05;;;;;;;;;;;20.60;64.60;;;;;;499201;237;1078;-70
2021/07/12 11:17:06;;;;;;;;;;;20.60;64.70;;;;;;499361;237;1198;-70
2021/07/12 11:19:08;;;;;;;;;;;20.60;64.70;;;;;;499269;237;1083;-70
2021/07/12 11:21:10;;;;;;;;;;;20.60;64.60;;;;;;499501;237;1163;-70
2021/07/12 11:23:11;;;;;;;;;;;20.70;64.70;;;;;;499269;237;1408;-70
2021/07/12 11:25:12;;;;;;;;;;;20.60;64.70;;;;;;499351;237;1094;-70
2021/07/12 11:27:13;;;;;;;;;;;20.60;64.80;;;;;;499374;237;2179;-70
2021/07/12 11:29:15;;;;;;;;;;;20.60;64.70;;;;;;499373;237;1181;-70
2021/07/12 11:31:16;;;;;;;;;;;20.60;64.60;;;;;;499281;237;1195;-70
2021/07/12 11:33:17;;;;;;;;;;;20.60;64.60;;;;;;499235;237;1081;-70
2021/07/12 11:35:19;;;;;;;;;;;20.60;64.70;;;;;;499205;237;1169;-70
2021/07/12 11:37:20;;;;;;;;;;;20.60;64.50;;;;;;499329;237;1216;-69
2021/07/12 11:39:21;;;;;;;;;;;20.50;64.70;;;;;;499472;237;1090;-70
2021/07/12 11:41:23;;;;;;;;;;;20.50;65.00;;;;;;499325;237;1133;-70
2021/07/12 11:43:24;;;;;;;;;;;20.50;64.90;;;;;;499419;237;1300;-70
2021/07/12 11:45:25;;;;;;;;;;;20.50;64.90;;;;;;499339;237;1055;-70
2021/07/12 11:47:27;;;;;;;;;;;20.50;64.80;;;;;;499350;237;2172;-70
2021/07/12 11:49:28;;;;;;;;;;;20.50;64.90;;;;;;499378;237;1076;-70
2021/07/12 11:51:30;;;;;;;;;;;20.50;64.80;;;;;;499336;237;1282;-70
2021/07/12 11:53:31;;;;;;;;;;;20.60;64.60;;;;;;499478;237;1260;-70
2021/07/12 11:55:32;;;;;;;;;;;20.50;64.60;;;;;;499400;237;1229;-70
2021/07/12 11:57:34;;;;;;;;;;;20.60;64.50;;;;;;499410;237;1180;-70